sensor_id;sensor_type;location;lat;lon;timestamp;temperature;humidity
13707;DHT22;6925;47.816;13.072;2023-09-12T00:00:43;23.60;66.20
13707;DHT22;6925;47.816;13.072;2023-09-12T00:03:10;23.40;66.20
13707;DHT22;6925;47.816;13.072;2023-09-12T00:05:37;23.50;66.20
13707;DHT22;6925;47.816;13.072;2023-09-12T00:08:05;23.50;66.60
13707;DHT22;6925;47.816;13.072;2023-09-12T00:10:32;23.50;66.60
13707;DHT22;6925;47.816;13.072;2023-09-12T00:13:00;23.50;66.60
13707;DHT22;6925;47.816;13.072;2023-09-12T00:15:28;23.50;67.10
13707;DHT22;6925;47.816;13.072;2023-09-12T00:17:55;23.40;66.40
13707;DHT22;6925;47.816;13.072;2023-09-12T00:20:23;23.40;66.50
13707;DHT22;6925;47.816;13.072;2023-09-12T00:22:50;23.30;66.70
13707;DHT22;6925;47.816;13.072;2023-09-12T00:25:18;23.30;66.70
13707;DHT22;6925;47.816;13.072;2023-09-12T00:27:45;23.30;67.10
13707;DHT22;6925;47.816;13.072;2023-09-12T00:30:15;23.30;67.00
13707;DHT22;6925;47.816;13.072;2023-09-12T00:32:42;23.30;67.00
13707;DHT22;6925;47.816;13.072;2023-09-12T00:35:09;23.20;67.10
13707;DHT22;6925;47.816;13.072;2023-09-12T00:37:36;23.20;67.20
13707;DHT22;6925;47.816;13.072;2023-09-12T00:40:04;23.20;67.40
13707;DHT22;6925;47.816;13.072;2023-09-12T00:42:32;23.30;67.40
13707;DHT22;6925;47.816;13.072;2023-09-12T00:44:59;23.30;67.20
13707;DHT22;6925;47.816;13.072;2023-09-12T00:47:28;23.30;67.30
13707;DHT22;6925;47.816;13.072;2023-09-12T00:49:56;23.30;67.10
13707;DHT22;6925;47.816;13.072;2023-09-12T00:52:24;23.30;67.20
13707;DHT22;6925;47.816;13.072;2023-09-12T00:54:52;23.30;67.30
13707;DHT22;6925;47.816;13.072;2023-09-12T00:57:20;23.30;67.00
13707;DHT22;6925;47.816;13.072;2023-09-12T00:59:48;23.30;67.30
13707;DHT22;6925;47.816;13.072;2023-09-12T01:02:16;23.30;67.20
13707;DHT22;6925;47.816;13.072;2023-09-12T01:04:45;23.30;67.30
13707;DHT22;6925;47.816;13.072;2023-09-12T01:07:12;23.30;67.30
13707;DHT22;6925;47.816;13.072;2023-09-12T01:09:40;23.30;67.30
13707;DHT22;6925;47.816;13.072;2023-09-12T01:12:08;23.20;67.30
13707;DHT22;6925;47.816;13.072;2023-09-12T01:14:40;23.20;67.50
13707;DHT22;6925;47.816;13.072;2023-09-12T01:17:07;23.20;67.60
13707;DHT22;6925;47.816;13.072;2023-09-12T01:19:34;23.20;67.70
13707;DHT22;6925;47.816;13.072;2023-09-12T01:22:29;23.20;67.90
13707;DHT22;6925;47.816;13.072;2023-09-12T01:28:19;23.10;67.80
13707;DHT22;6925;47.816;13.072;2023-09-12T01:30:49;23.10;67.80
13707;DHT22;6925;47.816;13.072;2023-09-12T01:33:17;23.10;67.80
13707;DHT22;6925;47.816;13.072;2023-09-12T01:35:45;23.10;67.80
13707;DHT22;6925;47.816;13.072;2023-09-12T01:38:12;23.10;67.80
13707;DHT22;6925;47.816;13.072;2023-09-12T01:40:51;23.00;67.80
13707;DHT22;6925;47.816;13.072;2023-09-12T01:43:22;23.00;67.90
13707;DHT22;6925;47.816;13.072;2023-09-12T01:45:52;22.90;68.10
13707;DHT22;6925;47.816;13.072;2023-09-12T01:48:20;22.90;68.20
13707;DHT22;6925;47.816;13.072;2023-09-12T01:50:49;22.90;68.30
13707;DHT22;6925;47.816;13.072;2023-09-12T01:53:17;22.90;68.20
13707;DHT22;6925;47.816;13.072;2023-09-12T01:55:45;22.90;68.30
13707;DHT22;6925;47.816;13.072;2023-09-12T01:58:13;22.90;68.50
13707;DHT22;6925;47.816;13.072;2023-09-12T02:00:41;22.90;68.50
13707;DHT22;6925;47.816;13.072;2023-09-12T02:03:08;22.80;68.60
13707;DHT22;6925;47.816;13.072;2023-09-12T02:05:36;22.80;68.60
13707;DHT22;6925;47.816;13.072;2023-09-12T02:08:03;22.80;68.80
13707;DHT22;6925;47.816;13.072;2023-09-12T02:10:30;22.80;68.60
13707;DHT22;6925;47.816;13.072;2023-09-12T02:12:57;22.80;68.80
13707;DHT22;6925;47.816;13.072;2023-09-12T02:15:25;22.80;68.90
13707;DHT22;6925;47.816;13.072;2023-09-12T02:17:53;22.70;68.90
13707;DHT22;6925;47.816;13.072;2023-09-12T02:20:20;22.70;69.20
13707;DHT22;6925;47.816;13.072;2023-09-12T02:22:47;22.70;69.30
13707;DHT22;6925;47.816;13.072;2023-09-12T02:25:14;22.70;69.30
13707;DHT22;6925;47.816;13.072;2023-09-12T02:27:41;22.70;69.10
13707;DHT22;6925;47.816;13.072;2023-09-12T02:30:08;22.70;68.80
13707;DHT22;6925;47.816;13.072;2023-09-12T02:32:35;22.70;68.80
13707;DHT22;6925;47.816;13.072;2023-09-12T02:35:04;22.60;69.10
13707;DHT22;6925;47.816;13.072;2023-09-12T02:37:31;22.60;69.20
13707;DHT22;6925;47.816;13.072;2023-09-12T02:39:59;22.60;69.10
13707;DHT22;6925;47.816;13.072;2023-09-12T02:42:26;22.60;69.20
13707;DHT22;6925;47.816;13.072;2023-09-12T02:44:53;22.60;69.10
13707;DHT22;6925;47.816;13.072;2023-09-12T02:47:20;22.50;69.40
13707;DHT22;6925;47.816;13.072;2023-09-12T02:49:47;22.50;69.50
13707;DHT22;6925;47.816;13.072;2023-09-12T02:52:16;22.50;69.60
13707;DHT22;6925;47.816;13.072;2023-09-12T02:54:43;22.50;69.80
13707;DHT22;6925;47.816;13.072;2023-09-12T02:57:10;22.50;69.70
13707;DHT22;6925;47.816;13.072;2023-09-12T02:59:37;22.50;69.70
13707;DHT22;6925;47.816;13.072;2023-09-12T03:02:04;22.50;69.60
13707;DHT22;6925;47.816;13.072;2023-09-12T03:04:32;22.40;69.70
13707;DHT22;6925;47.816;13.072;2023-09-12T03:06:59;22.40;69.70
13707;DHT22;6925;47.816;13.072;2023-09-12T03:09:28;22.30;69.80
13707;DHT22;6925;47.816;13.072;2023-09-12T03:11:55;22.40;70.20
13707;DHT22;6925;47.816;13.072;2023-09-12T03:14:22;22.40;69.90
13707;DHT22;6925;47.816;13.072;2023-09-12T03:16:49;22.40;69.90
13707;DHT22;6925;47.816;13.072;2023-09-12T03:19:16;22.30;70.00
13707;DHT22;6925;47.816;13.072;2023-09-12T03:21:42;22.40;70.10
13707;DHT22;6925;47.816;13.072;2023-09-12T03:24:09;22.40;70.20
13707;DHT22;6925;47.816;13.072;2023-09-12T03:26:38;22.30;70.40
13707;DHT22;6925;47.816;13.072;2023-09-12T03:29:05;22.30;70.50
13707;DHT22;6925;47.816;13.072;2023-09-12T03:31:32;22.40;70.40
13707;DHT22;6925;47.816;13.072;2023-09-12T03:33:59;22.40;70.30
13707;DHT22;6925;47.816;13.072;2023-09-12T03:36:27;22.40;70.20
13707;DHT22;6925;47.816;13.072;2023-09-12T03:38:54;22.40;70.90
13707;DHT22;6925;47.816;13.072;2023-09-12T03:41:21;22.30;70.00
13707;DHT22;6925;47.816;13.072;2023-09-12T03:43:53;22.30;70.00
13707;DHT22;6925;47.816;13.072;2023-09-12T03:46:21;22.30;70.00
13707;DHT22;6925;47.816;13.072;2023-09-12T03:48:48;22.30;70.20
13707;DHT22;6925;47.816;13.072;2023-09-12T03:51:15;22.30;70.30
13707;DHT22;6925;47.816;13.072;2023-09-12T03:53:42;22.20;70.10
13707;DHT22;6925;47.816;13.072;2023-09-12T03:56:09;22.30;70.20
13707;DHT22;6925;47.816;13.072;2023-09-12T03:58:38;22.30;70.10
13707;DHT22;6925;47.816;13.072;2023-09-12T04:01:06;22.30;70.10
13707;DHT22;6925;47.816;13.072;2023-09-12T04:03:33;22.30;70.00
13707;DHT22;6925;47.816;13.072;2023-09-12T04:06:01;22.30;70.20
13707;DHT22;6925;47.816;13.072;2023-09-12T04:08:28;22.20;70.20
13707;DHT22;6925;47.816;13.072;2023-09-12T04:10:55;22.30;70.20
13707;DHT22;6925;47.816;13.072;2023-09-12T04:13:22;22.20;70.10
13707;DHT22;6925;47.816;13.072;2023-09-12T04:15:49;22.20;70.10
13707;DHT22;6925;47.816;13.072;2023-09-12T04:18:17;22.20;70.20
13707;DHT22;6925;47.816;13.072;2023-09-12T04:20:44;22.20;70.20
13707;DHT22;6925;47.816;13.072;2023-09-12T04:23:11;22.20;70.20
13707;DHT22;6925;47.816;13.072;2023-09-12T04:25:41;22.10;70.10
13707;DHT22;6925;47.816;13.072;2023-09-12T04:28:08;22.10;70.30
13707;DHT22;6925;47.816;13.072;2023-09-12T04:30:35;22.10;70.30
13707;DHT22;6925;47.816;13.072;2023-09-12T04:33:03;22.00;70.30
13707;DHT22;6925;47.816;13.072;2023-09-12T04:35:34;22.00;70.60
13707;DHT22;6925;47.816;13.072;2023-09-12T04:38:01;22.00;70.70
13707;DHT22;6925;47.816;13.072;2023-09-12T04:40:29;22.00;70.60
13707;DHT22;6925;47.816;13.072;2023-09-12T04:42:57;22.00;70.60
13707;DHT22;6925;47.816;13.072;2023-09-12T04:45:24;22.00;70.80
13707;DHT22;6925;47.816;13.072;2023-09-12T04:47:50;22.00;70.70
13707;DHT22;6925;47.816;13.072;2023-09-12T04:50:18;22.00;70.60
13707;DHT22;6925;47.816;13.072;2023-09-12T04:52:46;22.00;70.60
13707;DHT22;6925;47.816;13.072;2023-09-12T04:55:13;22.00;70.40
13707;DHT22;6925;47.816;13.072;2023-09-12T04:57:40;21.90;70.50
13707;DHT22;6925;47.816;13.072;2023-09-12T05:00:07;21.90;70.70
13707;DHT22;6925;47.816;13.072;2023-09-12T05:02:36;22.00;70.50
13707;DHT22;6925;47.816;13.072;2023-09-12T05:05:03;21.90;70.80
13707;DHT22;6925;47.816;13.072;2023-09-12T05:07:30;21.90;70.80
13707;DHT22;6925;47.816;13.072;2023-09-12T05:09:59;21.90;70.90
13707;DHT22;6925;47.816;13.072;2023-09-12T05:12:26;21.90;70.90
13707;DHT22;6925;47.816;13.072;2023-09-12T05:14:52;21.90;70.80
13707;DHT22;6925;47.816;13.072;2023-09-12T05:17:19;21.80;70.80
13707;DHT22;6925;47.816;13.072;2023-09-12T05:19:46;21.80;71.20
13707;DHT22;6925;47.816;13.072;2023-09-12T05:22:13;21.70;71.30
13707;DHT22;6925;47.816;13.072;2023-09-12T05:24:40;21.80;71.50
13707;DHT22;6925;47.816;13.072;2023-09-12T05:27:08;21.80;71.40
13707;DHT22;6925;47.816;13.072;2023-09-12T05:29:36;21.70;71.40
13707;DHT22;6925;47.816;13.072;2023-09-12T05:32:03;21.80;71.30
13707;DHT22;6925;47.816;13.072;2023-09-12T05:34:30;21.80;71.30
13707;DHT22;6925;47.816;13.072;2023-09-12T05:36:57;21.80;71.40
13707;DHT22;6925;47.816;13.072;2023-09-12T05:39:24;21.80;71.60
13707;DHT22;6925;47.816;13.072;2023-09-12T05:41:51;21.80;71.70
13707;DHT22;6925;47.816;13.072;2023-09-12T05:44:19;21.70;71.80
13707;DHT22;6925;47.816;13.072;2023-09-12T05:46:46;21.80;72.00
13707;DHT22;6925;47.816;13.072;2023-09-12T05:49:14;21.90;71.80
13707;DHT22;6925;47.816;13.072;2023-09-12T05:51:41;21.80;72.10
13707;DHT22;6925;47.816;13.072;2023-09-12T05:54:10;21.80;72.10
13707;DHT22;6925;47.816;13.072;2023-09-12T05:56:39;21.80;72.40
13707;DHT22;6925;47.816;13.072;2023-09-12T05:59:06;21.90;72.50
13707;DHT22;6925;47.816;13.072;2023-09-12T06:01:34;21.90;72.60
13707;DHT22;6925;47.816;13.072;2023-09-12T06:04:01;21.90;73.00
13707;DHT22;6925;47.816;13.072;2023-09-12T06:06:29;22.00;72.90
13707;DHT22;6925;47.816;13.072;2023-09-12T06:08:56;22.00;72.70
13707;DHT22;6925;47.816;13.072;2023-09-12T06:11:24;22.00;72.40
13707;DHT22;6925;47.816;13.072;2023-09-12T06:13:51;22.00;72.30
13707;DHT22;6925;47.816;13.072;2023-09-12T06:16:18;22.00;71.90
13707;DHT22;6925;47.816;13.072;2023-09-12T06:18:47;21.90;72.40
13707;DHT22;6925;47.816;13.072;2023-09-12T06:21:14;22.00;72.90
13707;DHT22;6925;47.816;13.072;2023-09-12T06:23:42;22.10;73.20
13707;DHT22;6925;47.816;13.072;2023-09-12T06:26:08;22.20;73.40
13707;DHT22;6925;47.816;13.072;2023-09-12T06:28:35;22.20;73.30
13707;DHT22;6925;47.816;13.072;2023-09-12T06:31:02;22.30;73.70
13707;DHT22;6925;47.816;13.072;2023-09-12T06:33:29;22.40;73.40
13707;DHT22;6925;47.816;13.072;2023-09-12T06:35:58;22.40;72.60
13707;DHT22;6925;47.816;13.072;2023-09-12T06:38:26;22.40;72.30
13707;DHT22;6925;47.816;13.072;2023-09-12T06:40:52;22.40;71.90
13707;DHT22;6925;47.816;13.072;2023-09-12T06:43:19;22.40;71.70
13707;DHT22;6925;47.816;13.072;2023-09-12T06:45:46;22.30;72.00
13707;DHT22;6925;47.816;13.072;2023-09-12T06:48:13;22.40;72.30
13707;DHT22;6925;47.816;13.072;2023-09-12T06:50:40;22.40;72.00
13707;DHT22;6925;47.816;13.072;2023-09-12T06:53:08;22.40;72.40
13707;DHT22;6925;47.816;13.072;2023-09-12T06:55:35;22.40;72.40
13707;DHT22;6925;47.816;13.072;2023-09-12T06:58:02;22.40;72.70
13707;DHT22;6925;47.816;13.072;2023-09-12T07:00:30;22.50;72.40
13707;DHT22;6925;47.816;13.072;2023-09-12T07:02:57;22.60;72.60
13707;DHT22;6925;47.816;13.072;2023-09-12T07:05:24;22.60;72.30
13707;DHT22;6925;47.816;13.072;2023-09-12T07:07:52;22.70;72.40
13707;DHT22;6925;47.816;13.072;2023-09-12T07:10:21;22.70;72.10
13707;DHT22;6925;47.816;13.072;2023-09-12T07:12:49;22.80;72.60
13707;DHT22;6925;47.816;13.072;2023-09-12T07:15:16;22.80;72.30
13707;DHT22;6925;47.816;13.072;2023-09-12T07:17:43;22.80;72.20
13707;DHT22;6925;47.816;13.072;2023-09-12T07:20:11;22.90;72.50
13707;DHT22;6925;47.816;13.072;2023-09-12T07:22:38;22.90;72.20
13707;DHT22;6925;47.816;13.072;2023-09-12T07:25:07;23.00;72.20
13707;DHT22;6925;47.816;13.072;2023-09-12T07:27:38;23.10;72.30
13707;DHT22;6925;47.816;13.072;2023-09-12T07:30:06;23.20;71.70
13707;DHT22;6925;47.816;13.072;2023-09-12T07:32:34;23.20;71.50
13707;DHT22;6925;47.816;13.072;2023-09-12T07:35:01;23.10;71.60
13707;DHT22;6925;47.816;13.072;2023-09-12T07:37:28;23.10;71.40
13707;DHT22;6925;47.816;13.072;2023-09-12T07:39:55;23.00;71.40
13707;DHT22;6925;47.816;13.072;2023-09-12T07:42:22;23.10;71.80
13707;DHT22;6925;47.816;13.072;2023-09-12T07:44:51;23.10;71.90
13707;DHT22;6925;47.816;13.072;2023-09-12T07:47:18;23.00;71.90
13707;DHT22;6925;47.816;13.072;2023-09-12T07:49:45;23.10;72.10
13707;DHT22;6925;47.816;13.072;2023-09-12T07:52:13;23.10;71.90
13707;DHT22;6925;47.816;13.072;2023-09-12T07:54:40;23.10;71.90
13707;DHT22;6925;47.816;13.072;2023-09-12T07:57:06;23.10;71.70
13707;DHT22;6925;47.816;13.072;2023-09-12T07:59:33;23.10;72.30
13707;DHT22;6925;47.816;13.072;2023-09-12T08:02:03;23.10;72.70
13707;DHT22;6925;47.816;13.072;2023-09-12T08:04:30;23.20;72.50
13707;DHT22;6925;47.816;13.072;2023-09-12T08:06:57;23.30;71.80
13707;DHT22;6925;47.816;13.072;2023-09-12T08:09:24;23.40;71.60
13707;DHT22;6925;47.816;13.072;2023-09-12T08:11:50;23.50;72.20
13707;DHT22;6925;47.816;13.072;2023-09-12T08:14:17;23.60;72.30
13707;DHT22;6925;47.816;13.072;2023-09-12T08:16:47;23.80;72.30
13707;DHT22;6925;47.816;13.072;2023-09-12T08:19:15;23.90;71.90
13707;DHT22;6925;47.816;13.072;2023-09-12T08:21:42;24.10;71.90
13707;DHT22;6925;47.816;13.072;2023-09-12T08:24:11;24.20;71.40
13707;DHT22;6925;47.816;13.072;2023-09-12T08:26:38;24.40;70.50
13707;DHT22;6925;47.816;13.072;2023-09-12T08:29:05;24.50;70.80
13707;DHT22;6925;47.816;13.072;2023-09-12T08:31:32;24.70;71.50
13707;DHT22;6925;47.816;13.072;2023-09-12T08:33:59;24.90;71.00
13707;DHT22;6925;47.816;13.072;2023-09-12T08:36:28;25.10;69.80
13707;DHT22;6925;47.816;13.072;2023-09-12T08:38:55;25.30;69.30
13707;DHT22;6925;47.816;13.072;2023-09-12T08:41:22;25.40;70.20
13707;DHT22;6925;47.816;13.072;2023-09-12T08:43:49;25.70;70.60
13707;DHT22;6925;47.816;13.072;2023-09-12T08:46:16;25.90;70.00
13707;DHT22;6925;47.816;13.072;2023-09-12T08:48:45;26.10;70.70
13707;DHT22;6925;47.816;13.072;2023-09-12T08:51:13;26.40;70.40
13707;DHT22;6925;47.816;13.072;2023-09-12T08:53:41;26.60;70.00
13707;DHT22;6925;47.816;13.072;2023-09-12T08:56:09;26.80;67.30
13707;DHT22;6925;47.816;13.072;2023-09-12T08:58:37;26.90;66.80
13707;DHT22;6925;47.816;13.072;2023-09-12T09:01:06;27.00;67.50
13707;DHT22;6925;47.816;13.072;2023-09-12T09:03:37;27.20;67.90
13707;DHT22;6925;47.816;13.072;2023-09-12T09:06:05;27.30;67.30
13707;DHT22;6925;47.816;13.072;2023-09-12T09:08:33;27.60;67.90
13707;DHT22;6925;47.816;13.072;2023-09-12T09:11:02;27.80;65.00
13707;DHT22;6925;47.816;13.072;2023-09-12T09:13:31;27.90;66.70
13707;DHT22;6925;47.816;13.072;2023-09-12T09:16:12;28.10;65.40
13707;DHT22;6925;47.816;13.072;2023-09-12T09:18:52;28.20;64.00
13707;DHT22;6925;47.816;13.072;2023-09-12T09:21:21;28.40;64.90
13707;DHT22;6925;47.816;13.072;2023-09-12T09:23:50;28.50;63.90
13707;DHT22;6925;47.816;13.072;2023-09-12T09:26:19;28.70;63.30
13707;DHT22;6925;47.816;13.072;2023-09-12T09:29:05;28.80;63.30
13707;DHT22;6925;47.816;13.072;2023-09-12T09:31:32;29.00;62.10
13707;DHT22;6925;47.816;13.072;2023-09-12T09:34:00;29.10;60.30
13707;DHT22;6925;47.816;13.072;2023-09-12T09:36:29;29.20;59.60
13707;DHT22;6925;47.816;13.072;2023-09-12T09:38:57;29.30;60.00
13707;DHT22;6925;47.816;13.072;2023-09-12T09:41:27;29.50;60.30
13707;DHT22;6925;47.816;13.072;2023-09-12T09:43:54;29.70;59.70
13707;DHT22;6925;47.816;13.072;2023-09-12T09:46:21;29.80;59.20
13707;DHT22;6925;47.816;13.072;2023-09-12T09:48:51;29.90;59.20
13707;DHT22;6925;47.816;13.072;2023-09-12T09:51:19;30.10;57.60
13707;DHT22;6925;47.816;13.072;2023-09-12T09:53:46;30.10;58.50
13707;DHT22;6925;47.816;13.072;2023-09-12T09:56:18;30.20;58.70
13707;DHT22;6925;47.816;13.072;2023-09-12T09:58:51;30.40;59.30
13707;DHT22;6925;47.816;13.072;2023-09-12T10:01:19;30.50;59.30
13707;DHT22;6925;47.816;13.072;2023-09-12T10:03:46;30.70;57.90
13707;DHT22;6925;47.816;13.072;2023-09-12T10:06:16;30.80;59.00
13707;DHT22;6925;47.816;13.072;2023-09-12T10:08:43;30.90;59.30
13707;DHT22;6925;47.816;13.072;2023-09-12T10:11:12;31.00;59.30
13707;DHT22;6925;47.816;13.072;2023-09-12T10:13:45;31.10;57.50
13707;DHT22;6925;47.816;13.072;2023-09-12T10:16:16;31.10;56.90
13707;DHT22;6925;47.816;13.072;2023-09-12T10:18:49;31.30;58.10
13707;DHT22;6925;47.816;13.072;2023-09-12T10:21:27;31.40;57.30
13707;DHT22;6925;47.816;13.072;2023-09-12T10:23:56;31.40;56.10
13707;DHT22;6925;47.816;13.072;2023-09-12T10:26:25;31.40;56.70
13707;DHT22;6925;47.816;13.072;2023-09-12T10:28:52;31.50;57.60
13707;DHT22;6925;47.816;13.072;2023-09-12T10:31:22;31.60;57.00
13707;DHT22;6925;47.816;13.072;2023-09-12T10:33:51;31.70;57.10
13707;DHT22;6925;47.816;13.072;2023-09-12T10:36:19;31.80;55.90
13707;DHT22;6925;47.816;13.072;2023-09-12T10:38:48;31.90;55.80
13707;DHT22;6925;47.816;13.072;2023-09-12T10:41:16;31.90;55.80
13707;DHT22;6925;47.816;13.072;2023-09-12T10:43:44;32.10;54.10
13707;DHT22;6925;47.816;13.072;2023-09-12T10:46:15;32.10;53.70
13707;DHT22;6925;47.816;13.072;2023-09-12T10:48:44;32.20;54.60
13707;DHT22;6925;47.816;13.072;2023-09-12T10:51:12;32.20;54.30
13707;DHT22;6925;47.816;13.072;2023-09-12T10:53:45;32.40;55.20
13707;DHT22;6925;47.816;13.072;2023-09-12T10:56:19;32.50;54.50
13707;DHT22;6925;47.816;13.072;2023-09-12T10:59:08;32.60;54.80
13707;DHT22;6925;47.816;13.072;2023-09-12T11:01:37;32.80;52.30
13707;DHT22;6925;47.816;13.072;2023-09-12T11:04:32;32.70;53.10
13707;DHT22;6925;47.816;13.072;2023-09-12T11:07:30;32.70;52.70
13707;DHT22;6925;47.816;13.072;2023-09-12T11:10:17;32.70;52.30
13707;DHT22;6925;47.816;13.072;2023-09-12T11:12:46;32.80;54.60
13707;DHT22;6925;47.816;13.072;2023-09-12T11:15:13;32.90;55.10
13707;DHT22;6925;47.816;13.072;2023-09-12T11:17:41;33.00;54.40
13707;DHT22;6925;47.816;13.072;2023-09-12T11:20:10;33.00;54.00
13707;DHT22;6925;47.816;13.072;2023-09-12T11:22:39;33.00;54.40
13707;DHT22;6925;47.816;13.072;2023-09-12T11:25:16;33.00;52.10
13707;DHT22;6925;47.816;13.072;2023-09-12T11:28:02;32.90;52.30
13707;DHT22;6925;47.816;13.072;2023-09-12T11:30:30;32.90;53.30
13707;DHT22;6925;47.816;13.072;2023-09-12T11:32:58;32.90;53.00
13707;DHT22;6925;47.816;13.072;2023-09-12T11:35:28;33.00;52.70
13707;DHT22;6925;47.816;13.072;2023-09-12T11:37:57;33.00;53.30
13707;DHT22;6925;47.816;13.072;2023-09-12T11:40:25;33.10;52.30
13707;DHT22;6925;47.816;13.072;2023-09-12T11:42:52;33.00;49.90
13707;DHT22;6925;47.816;13.072;2023-09-12T11:45:20;32.90;51.10
13707;DHT22;6925;47.816;13.072;2023-09-12T11:47:49;32.80;50.20
13707;DHT22;6925;47.816;13.072;2023-09-12T11:50:35;32.80;50.80
13707;DHT22;6925;47.816;13.072;2023-09-12T11:53:06;32.80;49.60
13707;DHT22;6925;47.816;13.072;2023-09-12T11:55:36;32.80;50.70
13707;DHT22;6925;47.816;13.072;2023-09-12T11:58:04;32.80;50.10
13707;DHT22;6925;47.816;13.072;2023-09-12T12:00:32;32.80;50.10
13707;DHT22;6925;47.816;13.072;2023-09-12T12:03:00;32.80;50.10
13707;DHT22;6925;47.816;13.072;2023-09-12T12:05:27;32.90;49.70
13707;DHT22;6925;47.816;13.072;2023-09-12T12:07:56;33.00;50.10
13707;DHT22;6925;47.816;13.072;2023-09-12T12:10:23;33.00;50.30
13707;DHT22;6925;47.816;13.072;2023-09-12T12:12:53;33.10;49.50
13707;DHT22;6925;47.816;13.072;2023-09-12T12:15:20;33.40;52.00
13707;DHT22;6925;47.816;13.072;2023-09-12T12:17:47;33.50;49.60
13707;DHT22;6925;47.816;13.072;2023-09-12T12:20:15;33.50;47.80
13707;DHT22;6925;47.816;13.072;2023-09-12T12:22:42;33.50;48.90
13707;DHT22;6925;47.816;13.072;2023-09-12T12:25:11;33.50;49.70
13707;DHT22;6925;47.816;13.072;2023-09-12T12:27:39;33.40;49.60
13707;DHT22;6925;47.816;13.072;2023-09-12T12:30:09;33.40;50.10
13707;DHT22;6925;47.816;13.072;2023-09-12T12:32:36;33.30;51.30
13707;DHT22;6925;47.816;13.072;2023-09-12T12:35:07;33.30;51.50
13707;DHT22;6925;47.816;13.072;2023-09-12T12:37:35;33.20;51.20
13707;DHT22;6925;47.816;13.072;2023-09-12T12:40:03;33.10;49.80
13707;DHT22;6925;47.816;13.072;2023-09-12T12:42:38;33.00;50.20
13707;DHT22;6925;47.816;13.072;2023-09-12T12:45:11;32.90;51.40
13707;DHT22;6925;47.816;13.072;2023-09-12T12:47:39;32.80;51.70
13707;DHT22;6925;47.816;13.072;2023-09-12T12:50:09;32.80;51.90
13707;DHT22;6925;47.816;13.072;2023-09-12T12:52:37;32.80;52.90
13707;DHT22;6925;47.816;13.072;2023-09-12T12:55:06;32.90;53.30
13707;DHT22;6925;47.816;13.072;2023-09-12T12:57:37;33.00;52.90
13707;DHT22;6925;47.816;13.072;2023-09-12T13:00:08;33.00;51.60
13707;DHT22;6925;47.816;13.072;2023-09-12T13:02:36;33.00;50.40
13707;DHT22;6925;47.816;13.072;2023-09-12T13:05:04;33.00;50.70
13707;DHT22;6925;47.816;13.072;2023-09-12T13:07:33;33.10;50.30
13707;DHT22;6925;47.816;13.072;2023-09-12T13:10:01;33.10;49.60
13707;DHT22;6925;47.816;13.072;2023-09-12T13:12:29;33.00;50.50
13707;DHT22;6925;47.816;13.072;2023-09-12T13:14:57;33.00;50.70
13707;DHT22;6925;47.816;13.072;2023-09-12T13:17:24;33.10;50.20
13707;DHT22;6925;47.816;13.072;2023-09-12T13:19:51;33.00;49.30
13707;DHT22;6925;47.816;13.072;2023-09-12T13:22:18;33.00;50.30
13707;DHT22;6925;47.816;13.072;2023-09-12T13:24:45;33.10;51.50
13707;DHT22;6925;47.816;13.072;2023-09-12T13:27:13;33.20;50.50
13707;DHT22;6925;47.816;13.072;2023-09-12T13:29:40;33.20;49.70
13707;DHT22;6925;47.816;13.072;2023-09-12T13:32:09;33.20;50.60
13707;DHT22;6925;47.816;13.072;2023-09-12T13:34:38;33.30;49.70
13707;DHT22;6925;47.816;13.072;2023-09-12T13:37:05;33.30;50.60
13707;DHT22;6925;47.816;13.072;2023-09-12T13:39:32;33.40;49.50
13707;DHT22;6925;47.816;13.072;2023-09-12T13:41:59;33.30;49.10
13707;DHT22;6925;47.816;13.072;2023-09-12T13:44:28;33.30;50.40
13707;DHT22;6925;47.816;13.072;2023-09-12T13:46:55;33.40;50.70
13707;DHT22;6925;47.816;13.072;2023-09-12T13:49:24;33.40;50.50
13707;DHT22;6925;47.816;13.072;2023-09-12T13:51:51;33.40;50.50
13707;DHT22;6925;47.816;13.072;2023-09-12T13:54:18;33.30;49.10
13707;DHT22;6925;47.816;13.072;2023-09-12T13:56:45;33.00;48.70
13707;DHT22;6925;47.816;13.072;2023-09-12T13:59:12;33.00;50.10
13707;DHT22;6925;47.816;13.072;2023-09-12T14:01:39;33.00;52.20
13707;DHT22;6925;47.816;13.072;2023-09-12T14:04:06;33.00;52.60
13707;DHT22;6925;47.816;13.072;2023-09-12T14:06:35;33.10;52.90
13707;DHT22;6925;47.816;13.072;2023-09-12T14:09:02;33.20;53.20
13707;DHT22;6925;47.816;13.072;2023-09-12T14:11:29;33.30;51.40
13707;DHT22;6925;47.816;13.072;2023-09-12T14:13:56;33.30;51.30
13707;DHT22;6925;47.816;13.072;2023-09-12T14:16:23;33.40;50.10
13707;DHT22;6925;47.816;13.072;2023-09-12T14:18:51;33.60;50.00
13707;DHT22;6925;47.816;13.072;2023-09-12T14:21:18;33.80;49.80
13707;DHT22;6925;47.816;13.072;2023-09-12T14:23:46;34.00;49.20
13707;DHT22;6925;47.816;13.072;2023-09-12T14:26:13;34.20;48.20
13707;DHT22;6925;47.816;13.072;2023-09-12T14:28:40;34.40;46.70
13707;DHT22;6925;47.816;13.072;2023-09-12T14:31:07;34.50;47.60
13707;DHT22;6925;47.816;13.072;2023-09-12T14:33:39;34.70;47.30
13707;DHT22;6925;47.816;13.072;2023-09-12T14:36:08;34.80;47.40
13707;DHT22;6925;47.816;13.072;2023-09-12T14:38:35;34.90;45.00
13707;DHT22;6925;47.816;13.072;2023-09-12T14:41:03;35.00;44.40
13707;DHT22;6925;47.816;13.072;2023-09-12T14:43:31;35.10;45.80
13707;DHT22;6925;47.816;13.072;2023-09-12T14:45:58;35.30;45.10
13707;DHT22;6925;47.816;13.072;2023-09-12T14:48:26;35.40;45.60
13707;DHT22;6925;47.816;13.072;2023-09-12T14:50:53;35.60;45.90
13707;DHT22;6925;47.816;13.072;2023-09-12T14:53:20;35.70;44.40
13707;DHT22;6925;47.816;13.072;2023-09-12T14:55:48;35.80;44.80
13707;DHT22;6925;47.816;13.072;2023-09-12T14:58:16;35.90;44.20
13707;DHT22;6925;47.816;13.072;2023-09-12T15:00:43;35.90;43.20
13707;DHT22;6925;47.816;13.072;2023-09-12T15:03:10;35.90;44.40
13707;DHT22;6925;47.816;13.072;2023-09-12T15:05:37;36.00;44.60
13707;DHT22;6925;47.816;13.072;2023-09-12T15:08:05;36.10;44.10
13707;DHT22;6925;47.816;13.072;2023-09-12T15:10:32;36.20;45.20
13707;DHT22;6925;47.816;13.072;2023-09-12T15:12:59;36.30;44.20
13707;DHT22;6925;47.816;13.072;2023-09-12T15:15:28;36.40;44.50
13707;DHT22;6925;47.816;13.072;2023-09-12T15:17:55;36.30;43.70
13707;DHT22;6925;47.816;13.072;2023-09-12T15:20:22;36.30;44.30
13707;DHT22;6925;47.816;13.072;2023-09-12T15:22:49;36.30;43.80
13707;DHT22;6925;47.816;13.072;2023-09-12T15:25:16;36.30;44.70
13707;DHT22;6925;47.816;13.072;2023-09-12T15:27:43;36.40;44.90
13707;DHT22;6925;47.816;13.072;2023-09-12T15:30:12;36.40;45.10
13707;DHT22;6925;47.816;13.072;2023-09-12T15:32:41;36.40;44.70
13707;DHT22;6925;47.816;13.072;2023-09-12T15:35:09;36.30;44.50
13707;DHT22;6925;47.816;13.072;2023-09-12T15:37:36;36.30;45.00
13707;DHT22;6925;47.816;13.072;2023-09-12T15:40:04;36.20;44.60